sensor_id;sensor_type;location;lat;lon;timestamp;P1;durP1;ratioP1;P2;durP2;ratioP2
59649;SDS011;46162;57.568;25.814;2023-10-31T00:01:32;2.63;;;0.55;;
59649;SDS011;46162;57.568;25.814;2023-10-31T00:04:01;2.05;;;0.32;;
59649;SDS011;46162;57.568;25.814;2023-10-31T00:06:29;2.53;;;0.57;;
59649;SDS011;46162;57.568;25.814;2023-10-31T00:08:59;3.33;;;0.57;;
59649;SDS011;46162;57.568;25.814;2023-10-31T00:11:28;2.42;;;0.45;;
59649;SDS011;46162;57.568;25.814;2023-10-31T00:13:56;2.95;;;0.63;;
59649;SDS011;46162;57.568;25.814;2023-10-31T00:16:25;3.58;;;0.50;;
59649;SDS011;46162;57.568;25.814;2023-10-31T00:18:55;5.45;;;0.65;;
59649;SDS011;46162;57.568;25.814;2023-10-31T00:21:24;3.33;;;0.70;;
59649;SDS011;46162;57.568;25.814;2023-10-31T00:23:52;2.97;;;0.70;;
59649;SDS011;46162;57.568;25.814;2023-10-31T00:26:22;3.33;;;0.70;;
59649;SDS011;46162;57.568;25.814;2023-10-31T00:28:52;2.45;;;0.30;;
59649;SDS011;46162;57.568;25.814;2023-10-31T00:31:21;4.35;;;0.60;;
59649;SDS011;46162;57.568;25.814;2023-10-31T00:33:50;2.45;;;0.45;;
59649;SDS011;46162;57.568;25.814;2023-10-31T00:36:19;2.13;;;0.40;;
59649;SDS011;46162;57.568;25.814;2023-10-31T00:38:48;2.78;;;0.50;;
59649;SDS011;46162;57.568;25.814;2023-10-31T00:41:16;2.85;;;0.47;;
59649;SDS011;46162;57.568;25.814;2023-10-31T00:43:46;2.58;;;0.30;;
59649;SDS011;46162;57.568;25.814;2023-10-31T00:46:15;2.45;;;0.40;;
59649;SDS011;46162;57.568;25.814;2023-10-31T00:48:44;1.70;;;0.30;;
59649;SDS011;46162;57.568;25.814;2023-10-31T00:51:13;2.28;;;0.40;;
59649;SDS011;46162;57.568;25.814;2023-10-31T00:53:42;1.40;;;0.20;;
59649;SDS011;46162;57.568;25.814;2023-10-31T00:56:11;1.75;;;0.20;;
59649;SDS011;46162;57.568;25.814;2023-10-31T00:58:39;2.55;;;0.50;;
59649;SDS011;46162;57.568;25.814;2023-10-31T01:01:11;2.90;;;0.30;;
59649;SDS011;46162;57.568;25.814;2023-10-31T01:03:41;1.98;;;0.22;;
59649;SDS011;46162;57.568;25.814;2023-10-31T01:06:10;2.17;;;0.30;;
59649;SDS011;46162;57.568;25.814;2023-10-31T01:08:39;1.98;;;0.40;;
59649;SDS011;46162;57.568;25.814;2023-10-31T01:11:07;2.42;;;0.40;;
59649;SDS011;46162;57.568;25.814;2023-10-31T01:13:37;2.58;;;0.50;;
59649;SDS011;46162;57.568;25.814;2023-10-31T01:16:06;2.72;;;0.47;;
59649;SDS011;46162;57.568;25.814;2023-10-31T01:18:36;4.05;;;0.50;;
59649;SDS011;46162;57.568;25.814;2023-10-31T01:21:06;2.88;;;0.50;;
59649;SDS011;46162;57.568;25.814;2023-10-31T01:23:35;1.65;;;0.30;;
59649;SDS011;46162;57.568;25.814;2023-10-31T01:26:04;4.00;;;0.40;;
59649;SDS011;46162;57.568;25.814;2023-10-31T01:28:33;2.22;;;0.30;;
59649;SDS011;46162;57.568;25.814;2023-10-31T01:31:02;2.95;;;0.52;;
59649;SDS011;46162;57.568;25.814;2023-10-31T01:33:30;3.10;;;0.60;;
59649;SDS011;46162;57.568;25.814;2023-10-31T01:36:01;3.25;;;0.50;;
59649;SDS011;46162;57.568;25.814;2023-10-31T01:38:30;2.50;;;0.47;;
59649;SDS011;46162;57.568;25.814;2023-10-31T01:40:58;1.77;;;0.30;;
59649;SDS011;46162;57.568;25.814;2023-10-31T01:43:30;2.35;;;0.47;;
59649;SDS011;46162;57.568;25.814;2023-10-31T01:46:00;2.83;;;0.52;;
59649;SDS011;46162;57.568;25.814;2023-10-31T01:48:29;2.78;;;0.50;;
59649;SDS011;46162;57.568;25.814;2023-10-31T01:51:01;5.25;;;0.93;;
59649;SDS011;46162;57.568;25.814;2023-10-31T01:53:32;3.28;;;0.57;;
59649;SDS011;46162;57.568;25.814;2023-10-31T01:56:03;2.13;;;0.40;;
59649;SDS011;46162;57.568;25.814;2023-10-31T01:58:34;2.03;;;0.40;;
59649;SDS011;46162;57.568;25.814;2023-10-31T02:01:04;4.28;;;0.70;;
59649;SDS011;46162;57.568;25.814;2023-10-31T02:03:34;3.35;;;0.65;;
59649;SDS011;46162;57.568;25.814;2023-10-31T02:06:04;2.72;;;0.52;;
59649;SDS011;46162;57.568;25.814;2023-10-31T02:08:33;3.00;;;0.63;;
59649;SDS011;46162;57.568;25.814;2023-10-31T02:11:02;4.18;;;0.55;;
59649;SDS011;46162;57.568;25.814;2023-10-31T02:13:32;2.97;;;0.60;;
59649;SDS011;46162;57.568;25.814;2023-10-31T02:16:01;3.97;;;1.02;;
59649;SDS011;46162;57.568;25.814;2023-10-31T02:18:30;4.53;;;1.13;;
59649;SDS011;46162;57.568;25.814;2023-10-31T02:20:58;3.90;;;1.00;;
59649;SDS011;46162;57.568;25.814;2023-10-31T02:23:29;4.50;;;0.90;;
59649;SDS011;46162;57.568;25.814;2023-10-31T02:25:57;4.47;;;0.70;;
59649;SDS011;46162;57.568;25.814;2023-10-31T02:28:26;2.83;;;0.80;;
59649;SDS011;46162;57.568;25.814;2023-10-31T02:30:55;4.90;;;0.70;;
59649;SDS011;46162;57.568;25.814;2023-10-31T02:33:24;2.60;;;0.50;;
59649;SDS011;46162;57.568;25.814;2023-10-31T02:35:53;2.85;;;0.47;;
59649;SDS011;46162;57.568;25.814;2023-10-31T02:38:21;2.72;;;0.90;;
59649;SDS011;46162;57.568;25.814;2023-10-31T02:40:52;5.28;;;0.63;;
59649;SDS011;46162;57.568;25.814;2023-10-31T02:43:20;6.13;;;0.80;;
59649;SDS011;46162;57.568;25.814;2023-10-31T02:45:49;7.20;;;1.20;;
59649;SDS011;46162;57.568;25.814;2023-10-31T02:48:17;3.28;;;0.90;;
59649;SDS011;46162;57.568;25.814;2023-10-31T02:50:47;3.15;;;0.65;;
59649;SDS011;46162;57.568;25.814;2023-10-31T02:53:15;2.60;;;0.63;;
59649;SDS011;46162;57.568;25.814;2023-10-31T02:55:46;43.10;;;1.40;;
59649;SDS011;46162;57.568;25.814;2023-10-31T02:58:16;42.45;;;1.95;;
59649;SDS011;46162;57.568;25.814;2023-10-31T03:00:45;4.10;;;0.80;;
59649;SDS011;46162;57.568;25.814;2023-10-31T03:03:13;23.23;;;1.65;;
59649;SDS011;46162;57.568;25.814;2023-10-31T03:05:43;4.03;;;1.05;;
59649;SDS011;46162;57.568;25.814;2023-10-31T03:08:12;20.98;;;1.30;;
59649;SDS011;46162;57.568;25.814;2023-10-31T03:10:42;68.43;;;1.50;;
59649;SDS011;46162;57.568;25.814;2023-10-31T03:13:11;71.78;;;1.73;;
59649;SDS011;46162;57.568;25.814;2023-10-31T03:15:41;56.17;;;1.30;;
59649;SDS011;46162;57.568;25.814;2023-10-31T03:18:10;52.35;;;1.10;;
59649;SDS011;46162;57.568;25.814;2023-10-31T03:20:43;59.28;;;1.15;;
59649;SDS011;46162;57.568;25.814;2023-10-31T03:23:14;7.35;;;0.63;;
59649;SDS011;46162;57.568;25.814;2023-10-31T03:25:42;7.18;;;0.52;;
59649;SDS011;46162;57.568;25.814;2023-10-31T03:28:17;60.88;;;1.17;;
59649;SDS011;46162;57.568;25.814;2023-10-31T03:30:51;61.38;;;1.20;;
59649;SDS011;46162;57.568;25.814;2023-10-31T03:33:19;55.65;;;1.17;;
59649;SDS011;46162;57.568;25.814;2023-10-31T03:35:48;21.08;;;0.70;;
59649;SDS011;46162;57.568;25.814;2023-10-31T03:38:17;20.77;;;0.73;;
59649;SDS011;46162;57.568;25.814;2023-10-31T03:40:46;33.95;;;0.68;;
59649;SDS011;46162;57.568;25.814;2023-10-31T03:43:14;4.47;;;0.35;;
59649;SDS011;46162;57.568;25.814;2023-10-31T03:45:43;9.57;;;0.70;;
59649;SDS011;46162;57.568;25.814;2023-10-31T03:48:15;31.58;;;0.98;;
59649;SDS011;46162;57.568;25.814;2023-10-31T03:50:44;3.08;;;0.28;;
59649;SDS011;46162;57.568;25.814;2023-10-31T03:53:13;36.80;;;0.75;;
59649;SDS011;46162;57.568;25.814;2023-10-31T03:55:42;5.43;;;0.30;;
59649;SDS011;46162;57.568;25.814;2023-10-31T03:58:11;1.77;;;0.38;;
59649;SDS011;46162;57.568;25.814;2023-10-31T04:00:39;18.33;;;0.70;;
59649;SDS011;46162;57.568;25.814;2023-10-31T04:03:09;2.13;;;0.30;;
59649;SDS011;46162;57.568;25.814;2023-10-31T04:05:40;6.45;;;0.93;;
59649;SDS011;46162;57.568;25.814;2023-10-31T04:08:09;6.70;;;1.30;;
59649;SDS011;46162;57.568;25.814;2023-10-31T04:10:37;45.40;;;4.03;;
59649;SDS011;46162;57.568;25.814;2023-10-31T04:13:06;6.30;;;2.47;;
59649;SDS011;46162;57.568;25.814;2023-10-31T04:15:35;6.07;;;4.03;;
59649;SDS011;46162;57.568;25.814;2023-10-31T04:18:03;35.83;;;10.63;;
59649;SDS011;46162;57.568;25.814;2023-10-31T04:20:32;14.90;;;10.30;;
59649;SDS011;46162;57.568;25.814;2023-10-31T04:23:03;21.58;;;13.02;;
59649;SDS011;46162;57.568;25.814;2023-10-31T04:25:32;19.48;;;12.07;;
59649;SDS011;46162;57.568;25.814;2023-10-31T04:28:01;19.27;;;11.82;;
59649;SDS011;46162;57.568;25.814;2023-10-31T04:30:30;20.98;;;14.43;;
59649;SDS011;46162;57.568;25.814;2023-10-31T04:32:58;37.80;;;16.98;;
59649;SDS011;46162;57.568;25.814;2023-10-31T04:35:27;24.63;;;14.00;;
59649;SDS011;46162;57.568;25.814;2023-10-31T04:37:55;14.75;;;10.02;;
59649;SDS011;46162;57.568;25.814;2023-10-31T04:40:27;13.60;;;10.23;;
59649;SDS011;46162;57.568;25.814;2023-10-31T04:42:56;13.00;;;8.75;;
59649;SDS011;46162;57.568;25.814;2023-10-31T04:45:25;84.05;;;13.35;;
59649;SDS011;46162;57.568;25.814;2023-10-31T04:47:53;12.98;;;8.23;;
59649;SDS011;46162;57.568;25.814;2023-10-31T04:50:22;12.32;;;8.20;;
59649;SDS011;46162;57.568;25.814;2023-10-31T04:52:51;14.80;;;8.00;;
59649;SDS011;46162;57.568;25.814;2023-10-31T04:55:20;17.52;;;6.75;;
59649;SDS011;46162;57.568;25.814;2023-10-31T04:57:50;16.75;;;6.70;;
59649;SDS011;46162;57.568;25.814;2023-10-31T05:00:19;15.43;;;6.30;;
59649;SDS011;46162;57.568;25.814;2023-10-31T05:02:48;19.30;;;6.88;;
59649;SDS011;46162;57.568;25.814;2023-10-31T05:05:17;11.20;;;5.78;;
59649;SDS011;46162;57.568;25.814;2023-10-31T05:07:46;18.85;;;7.10;;
59649;SDS011;46162;57.568;25.814;2023-10-31T05:10:15;13.85;;;6.78;;
59649;SDS011;46162;57.568;25.814;2023-10-31T05:12:44;29.95;;;7.15;;
59649;SDS011;46162;57.568;25.814;2023-10-31T05:15:14;13.57;;;6.88;;
59649;SDS011;46162;57.568;25.814;2023-10-31T05:17:43;18.63;;;7.63;;
59649;SDS011;46162;57.568;25.814;2023-10-31T05:20:12;17.60;;;6.75;;
59649;SDS011;46162;57.568;25.814;2023-10-31T05:22:41;22.77;;;7.13;;
59649;SDS011;46162;57.568;25.814;2023-10-31T05:25:10;16.77;;;6.68;;
59649;SDS011;46162;57.568;25.814;2023-10-31T05:27:40;16.40;;;7.60;;
59649;SDS011;46162;57.568;25.814;2023-10-31T05:30:09;22.33;;;7.75;;
59649;SDS011;46162;57.568;25.814;2023-10-31T05:32:40;24.77;;;8.33;;
59649;SDS011;46162;57.568;25.814;2023-10-31T05:35:09;18.67;;;7.88;;
59649;SDS011;46162;57.568;25.814;2023-10-31T05:37:38;16.20;;;6.43;;
59649;SDS011;46162;57.568;25.814;2023-10-31T05:40:08;20.35;;;7.72;;
59649;SDS011;46162;57.568;25.814;2023-10-31T05:42:38;19.50;;;7.00;;
59649;SDS011;46162;57.568;25.814;2023-10-31T05:45:08;14.60;;;7.75;;
59649;SDS011;46162;57.568;25.814;2023-10-31T05:50:09;15.65;;;6.68;;
59649;SDS011;46162;57.568;25.814;2023-10-31T05:52:39;11.70;;;6.28;;
59649;SDS011;46162;57.568;25.814;2023-10-31T05:55:08;15.68;;;6.75;;
59649;SDS011;46162;57.568;25.814;2023-10-31T05:57:37;14.65;;;6.85;;
59649;SDS011;46162;57.568;25.814;2023-10-31T06:00:07;14.35;;;7.32;;
59649;SDS011;46162;57.568;25.814;2023-10-31T06:02:39;19.67;;;6.72;;
59649;SDS011;46162;57.568;25.814;2023-10-31T06:05:09;19.33;;;6.72;;
59649;SDS011;46162;57.568;25.814;2023-10-31T06:07:39;18.90;;;7.05;;
59649;SDS011;46162;57.568;25.814;2023-10-31T06:10:08;18.10;;;7.47;;
59649;SDS011;46162;57.568;25.814;2023-10-31T06:12:39;18.60;;;6.72;;
59649;SDS011;46162;57.568;25.814;2023-10-31T06:15:09;14.68;;;6.93;;
59649;SDS011;46162;57.568;25.814;2023-10-31T06:17:38;17.70;;;6.57;;
59649;SDS011;46162;57.568;25.814;2023-10-31T06:20:09;11.95;;;6.25;;
59649;SDS011;46162;57.568;25.814;2023-10-31T06:22:39;15.25;;;7.22;;
59649;SDS011;46162;57.568;25.814;2023-10-31T06:25:08;15.02;;;6.53;;
59649;SDS011;46162;57.568;25.814;2023-10-31T06:27:36;21.25;;;6.90;;
59649;SDS011;46162;57.568;25.814;2023-10-31T06:30:06;14.85;;;6.88;;
59649;SDS011;46162;57.568;25.814;2023-10-31T06:32:50;15.07;;;7.15;;
59649;SDS011;46162;57.568;25.814;2023-10-31T06:35:22;14.52;;;7.03;;
59649;SDS011;46162;57.568;25.814;2023-10-31T06:37:52;14.32;;;7.05;;
59649;SDS011;46162;57.568;25.814;2023-10-31T06:40:23;17.70;;;6.68;;
59649;SDS011;46162;57.568;25.814;2023-10-31T06:42:52;15.05;;;7.38;;
59649;SDS011;46162;57.568;25.814;2023-10-31T06:45:21;12.27;;;7.15;;
59649;SDS011;46162;57.568;25.814;2023-10-31T06:47:50;14.75;;;6.82;;
59649;SDS011;46162;57.568;25.814;2023-10-31T06:50:19;14.95;;;6.90;;
59649;SDS011;46162;57.568;25.814;2023-10-31T06:52:49;16.25;;;7.63;;
59649;SDS011;46162;57.568;25.814;2023-10-31T06:55:18;13.98;;;7.40;;
59649;SDS011;46162;57.568;25.814;2023-10-31T06:57:47;15.40;;;7.15;;
59649;SDS011;46162;57.568;25.814;2023-10-31T07:00:16;13.35;;;7.65;;
59649;SDS011;46162;57.568;25.814;2023-10-31T07:02:45;14.40;;;7.70;;
59649;SDS011;46162;57.568;25.814;2023-10-31T07:05:14;17.85;;;8.27;;
59649;SDS011;46162;57.568;25.814;2023-10-31T07:07:46;23.13;;;8.47;;
59649;SDS011;46162;57.568;25.814;2023-10-31T07:10:15;16.52;;;7.72;;
59649;SDS011;46162;57.568;25.814;2023-10-31T07:12:44;12.88;;;7.10;;
59649;SDS011;46162;57.568;25.814;2023-10-31T07:15:12;24.17;;;10.27;;
59649;SDS011;46162;57.568;25.814;2023-10-31T07:17:41;16.92;;;8.75;;
59649;SDS011;46162;57.568;25.814;2023-10-31T07:20:10;18.23;;;9.63;;
59649;SDS011;46162;57.568;25.814;2023-10-31T07:22:39;15.75;;;7.90;;
59649;SDS011;46162;57.568;25.814;2023-10-31T07:25:09;20.83;;;8.85;;
59649;SDS011;46162;57.568;25.814;2023-10-31T07:27:38;12.05;;;7.72;;
59649;SDS011;46162;57.568;25.814;2023-10-31T07:30:07;22.63;;;9.75;;
59649;SDS011;46162;57.568;25.814;2023-10-31T07:32:37;17.25;;;8.10;;
59649;SDS011;46162;57.568;25.814;2023-10-31T07:35:06;14.82;;;8.52;;
59649;SDS011;46162;57.568;25.814;2023-10-31T07:37:35;16.58;;;8.70;;
59649;SDS011;46162;57.568;25.814;2023-10-31T07:40:07;15.25;;;9.15;;
59649;SDS011;46162;57.568;25.814;2023-10-31T07:42:38;17.70;;;8.82;;
59649;SDS011;46162;57.568;25.814;2023-10-31T07:45:08;17.70;;;8.98;;
59649;SDS011;46162;57.568;25.814;2023-10-31T07:47:37;19.80;;;9.40;;
59649;SDS011;46162;57.568;25.814;2023-10-31T07:50:07;15.07;;;8.80;;
59649;SDS011;46162;57.568;25.814;2023-10-31T07:52:37;15.18;;;9.18;;
59649;SDS011;46162;57.568;25.814;2023-10-31T07:55:06;17.63;;;8.98;;
59649;SDS011;46162;57.568;25.814;2023-10-31T07:57:42;15.10;;;9.10;;
59649;SDS011;46162;57.568;25.814;2023-10-31T08:00:12;14.45;;;7.93;;
59649;SDS011;46162;57.568;25.814;2023-10-31T08:02:41;15.80;;;8.82;;
59649;SDS011;46162;57.568;25.814;2023-10-31T08:05:10;16.55;;;9.25;;
59649;SDS011;46162;57.568;25.814;2023-10-31T08:07:40;14.23;;;8.32;;
59649;SDS011;46162;57.568;25.814;2023-10-31T08:10:09;15.57;;;8.30;;
59649;SDS011;46162;57.568;25.814;2023-10-31T08:12:38;16.25;;;7.80;;
59649;SDS011;46162;57.568;25.814;2023-10-31T08:15:09;18.48;;;8.30;;
59649;SDS011;46162;57.568;25.814;2023-10-31T08:17:38;16.83;;;8.55;;
59649;SDS011;46162;57.568;25.814;2023-10-31T08:20:07;12.35;;;7.55;;
59649;SDS011;46162;57.568;25.814;2023-10-31T08:22:38;16.13;;;8.13;;
59649;SDS011;46162;57.568;25.814;2023-10-31T08:25:09;17.70;;;7.47;;
59649;SDS011;46162;57.568;25.814;2023-10-31T08:27:41;14.75;;;8.07;;
59649;SDS011;46162;57.568;25.814;2023-10-31T08:30:12;13.65;;;8.05;;
59649;SDS011;46162;57.568;25.814;2023-10-31T08:32:41;10.32;;;7.05;;
59649;SDS011;46162;57.568;25.814;2023-10-31T08:35:10;14.88;;;7.97;;
59649;SDS011;46162;57.568;25.814;2023-10-31T08:37:38;13.82;;;7.45;;
59649;SDS011;46162;57.568;25.814;2023-10-31T08:40:08;13.05;;;6.40;;
59649;SDS011;46162;57.568;25.814;2023-10-31T08:42:37;13.00;;;7.20;;
59649;SDS011;46162;57.568;25.814;2023-10-31T08:45:06;10.27;;;6.25;;
59649;SDS011;46162;57.568;25.814;2023-10-31T08:47:37;11.13;;;6.00;;
59649;SDS011;46162;57.568;25.814;2023-10-31T08:50:07;9.57;;;5.37;;
59649;SDS011;46162;57.568;25.814;2023-10-31T08:52:36;10.33;;;5.43;;
59649;SDS011;46162;57.568;25.814;2023-10-31T08:55:05;7.85;;;5.10;;
59649;SDS011;46162;57.568;25.814;2023-10-31T08:57:34;11.50;;;5.47;;
59649;SDS011;46162;57.568;25.814;2023-10-31T09:00:05;9.05;;;5.57;;
59649;SDS011;46162;57.568;25.814;2023-10-31T09:02:34;10.63;;;5.03;;
59649;SDS011;46162;57.568;25.814;2023-10-31T09:05:05;8.07;;;4.50;;
59649;SDS011;46162;57.568;25.814;2023-10-31T09:07:34;9.27;;;4.57;;
59649;SDS011;46162;57.568;25.814;2023-10-31T09:10:03;10.18;;;4.18;;
59649;SDS011;46162;57.568;25.814;2023-10-31T09:12:33;8.63;;;4.30;;
59649;SDS011;46162;57.568;25.814;2023-10-31T09:15:02;7.75;;;3.60;;
59649;SDS011;46162;57.568;25.814;2023-10-31T09:17:31;7.90;;;3.65;;
59649;SDS011;46162;57.568;25.814;2023-10-31T09:20:00;8.52;;;3.15;;
59649;SDS011;46162;57.568;25.814;2023-10-31T09:22:30;7.60;;;3.63;;
59649;SDS011;46162;57.568;25.814;2023-10-31T09:24:59;5.60;;;3.08;;
59649;SDS011;46162;57.568;25.814;2023-10-31T09:27:29;7.80;;;3.20;;
59649;SDS011;46162;57.568;25.814;2023-10-31T09:29:59;7.10;;;3.03;;
59649;SDS011;46162;57.568;25.814;2023-10-31T09:32:27;10.55;;;3.30;;
59649;SDS011;46162;57.568;25.814;2023-10-31T09:34:56;6.93;;;3.45;;
59649;SDS011;46162;57.568;25.814;2023-10-31T09:37:25;12.02;;;3.50;;
59649;SDS011;46162;57.568;25.814;2023-10-31T09:39:56;9.73;;;3.50;;
59649;SDS011;46162;57.568;25.814;2023-10-31T09:42:24;7.97;;;3.40;;
59649;SDS011;46162;57.568;25.814;2023-10-31T09:44:53;8.93;;;3.90;;
59649;SDS011;46162;57.568;25.814;2023-10-31T09:47:22;8.32;;;3.45;;
59649;SDS011;46162;57.568;25.814;2023-10-31T09:49:51;7.82;;;3.55;;
59649;SDS011;46162;57.568;25.814;2023-10-31T09:54:50;5.97;;;2.92;;
59649;SDS011;46162;57.568;25.814;2023-10-31T09:57:22;8.20;;;3.40;;
59649;SDS011;46162;57.568;25.814;2023-10-31T09:59:53;7.60;;;3.78;;
59649;SDS011;46162;57.568;25.814;2023-10-31T10:02:22;8.18;;;3.80;;
59649;SDS011;46162;57.568;25.814;2023-10-31T10:04:51;9.48;;;3.33;;
59649;SDS011;46162;57.568;25.814;2023-10-31T10:07:20;10.80;;;3.70;;
59649;SDS011;46162;57.568;25.814;2023-10-31T10:09:53;7.90;;;2.95;;
59649;SDS011;46162;57.568;25.814;2023-10-31T10:12:31;8.70;;;3.35;;
59649;SDS011;46162;57.568;25.814;2023-10-31T10:15:00;9.45;;;3.92;;
59649;SDS011;46162;57.568;25.814;2023-10-31T10:17:30;10.43;;;4.57;;
59649;SDS011;46162;57.568;25.814;2023-10-31T10:20:07;8.32;;;4.03;;
59649;SDS011;46162;57.568;25.814;2023-10-31T10:22:37;9.43;;;4.43;;
59649;SDS011;46162;57.568;25.814;2023-10-31T10:25:07;9.60;;;4.10;;
59649;SDS011;46162;57.568;25.814;2023-10-31T10:27:40;6.72;;;2.88;;
59649;SDS011;46162;57.568;25.814;2023-10-31T10:30:09;6.23;;;3.40;;
59649;SDS011;46162;57.568;25.814;2023-10-31T10:32:38;9.40;;;3.40;;
59649;SDS011;46162;57.568;25.814;2023-10-31T10:35:07;7.07;;;3.97;;
59649;SDS011;46162;57.568;25.814;2023-10-31T10:37:37;6.15;;;3.40;;
59649;SDS011;46162;57.568;25.814;2023-10-31T10:40:07;10.68;;;4.07;;
59649;SDS011;46162;57.568;25.814;2023-10-31T10:42:42;8.40;;;3.55;;
59649;SDS011;46162;57.568;25.814;2023-10-31T10:45:14;6.32;;;2.83;;
59649;SDS011;46162;57.568;25.814;2023-10-31T10:47:47;5.30;;;2.60;;
59649;SDS011;46162;57.568;25.814;2023-10-31T10:50:18;6.90;;;3.20;;
59649;SDS011;46162;57.568;25.814;2023-10-31T10:52:49;7.38;;;3.30;;
59649;SDS011;46162;57.568;25.814;2023-10-31T10:55:21;7.68;;;3.22;;
59649;SDS011;46162;57.568;25.814;2023-10-31T10:58:00;8.50;;;3.30;;
59649;SDS011;46162;57.568;25.814;2023-10-31T11:00:33;8.30;;;3.42;;
59649;SDS011;46162;57.568;25.814;2023-10-31T11:03:03;7.18;;;3.50;;
59649;SDS011;46162;57.568;25.814;2023-10-31T11:05:33;6.45;;;3.08;;
59649;SDS011;46162;57.568;25.814;2023-10-31T11:08:04;6.97;;;3.20;;
59649;SDS011;46162;57.568;25.814;2023-10-31T11:10:33;10.43;;;3.92;;
59649;SDS011;46162;57.568;25.814;2023-10-31T11:13:05;8.88;;;3.55;;
59649;SDS011;46162;57.568;25.814;2023-10-31T11:15:34;11.43;;;4.53;;
59649;SDS011;46162;57.568;25.814;2023-10-31T11:18:04;9.23;;;5.05;;
59649;SDS011;46162;57.568;25.814;2023-10-31T11:20:34;10.80;;;4.32;;
59649;SDS011;46162;57.568;25.814;2023-10-31T11:23:04;14.38;;;4.32;;
59649;SDS011;46162;57.568;25.814;2023-10-31T11:25:33;8.75;;;4.07;;
59649;SDS011;46162;57.568;25.814;2023-10-31T11:28:12;22.10;;;4.80;;
59649;SDS011;46162;57.568;25.814;2023-10-31T11:30:42;9.85;;;3.63;;
59649;SDS011;46162;57.568;25.814;2023-10-31T11:33:12;8.48;;;4.00;;
59649;SDS011;46162;57.568;25.814;2023-10-31T11:35:41;10.95;;;4.03;;
59649;SDS011;46162;57.568;25.814;2023-10-31T11:38:12;8.07;;;4.47;;
59649;SDS011;46162;57.568;25.814;2023-10-31T11:40:54;7.70;;;2.97;;
59649;SDS011;46162;57.568;25.814;2023-10-31T11:46:22;10.65;;;4.07;;
59649;SDS011;46162;57.568;25.814;2023-10-31T11:48:54;8.98;;;4.55;;
59649;SDS011;46162;57.568;25.814;2023-10-31T11:51:24;10.32;;;3.95;;
59649;SDS011;46162;57.568;25.814;2023-10-31T11:53:53;7.53;;;4.40;;
59649;SDS011;46162;57.568;25.814;2023-10-31T11:56:22;7.88;;;4.43;;
59649;SDS011;46162;57.568;25.814;2023-10-31T11:59:00;9.07;;;4.55;;
59649;SDS011;46162;57.568;25.814;2023-10-31T12:01:31;9.57;;;4.38;;
59649;SDS011;46162;57.568;25.814;2023-10-31T12:04:00;9.35;;;3.85;;
59649;SDS011;46162;57.568;25.814;2023-10-31T12:06:34;8.95;;;3.17;;
59649;SDS011;46162;57.568;25.814;2023-10-31T12:09:02;8.98;;;3.80;;
59649;SDS011;46162;57.568;25.814;2023-10-31T12:11:31;7.10;;;4.15;;
59649;SDS011;46162;57.568;25.814;2023-10-31T12:14:02;8.35;;;3.58;;
59649;SDS011;46162;57.568;25.814;2023-10-31T12:16:32;6.90;;;4.00;;
59649;SDS011;46162;57.568;25.814;2023-10-31T12:19:02;9.60;;;3.83;;
59649;SDS011;46162;57.568;25.814;2023-10-31T12:21:36;7.35;;;3.10;;
59649;SDS011;46162;57.568;25.814;2023-10-31T12:24:06;8.98;;;3.67;;
59649;SDS011;46162;57.568;25.814;2023-10-31T12:26:36;8.75;;;3.08;;
59649;SDS011;46162;57.568;25.814;2023-10-31T12:29:08;6.93;;;3.20;;
59649;SDS011;46162;57.568;25.814;2023-10-31T12:31:44;8.00;;;3.25;;
59649;SDS011;46162;57.568;25.814;2023-10-31T12:34:14;10.90;;;2.90;;
59649;SDS011;46162;57.568;25.814;2023-10-31T12:36:44;7.05;;;2.45;;
59649;SDS011;46162;57.568;25.814;2023-10-31T12:39:15;7.00;;;2.50;;
59649;SDS011;46162;57.568;25.814;2023-10-31T12:41:45;6.25;;;2.60;;
59649;SDS011;46162;57.568;25.814;2023-10-31T12:44:18;9.32;;;2.80;;
59649;SDS011;46162;57.568;25.814;2023-10-31T12:46:51;7.03;;;2.40;;
59649;SDS011;46162;57.568;25.814;2023-10-31T12:49:20;8.38;;;2.10;;
59649;SDS011;46162;57.568;25.814;2023-10-31T12:51:57;5.90;;;2.00;;
59649;SDS011;46162;57.568;25.814;2023-10-31T12:54:27;6.10;;;2.03;;
59649;SDS011;46162;57.568;25.814;2023-10-31T12:56:58;7.85;;;2.10;;
59649;SDS011;46162;57.568;25.814;2023-10-31T12:59:29;6.00;;;1.88;;
59649;SDS011;46162;57.568;25.814;2023-10-31T13:01:58;9.35;;;2.97;;
59649;SDS011;46162;57.568;25.814;2023-10-31T13:04:28;8.43;;;2.50;;
59649;SDS011;46162;57.568;25.814;2023-10-31T13:06:58;8.07;;;2.42;;
59649;SDS011;46162;57.568;25.814;2023-10-31T13:09:29;9.63;;;2.60;;
59649;SDS011;46162;57.568;25.814;2023-10-31T13:11:59;8.98;;;2.47;;
59649;SDS011;46162;57.568;25.814;2023-10-31T13:16:59;6.30;;;2.13;;
59649;SDS011;46162;57.568;25.814;2023-10-31T13:19:29;13.73;;;2.70;;
59649;SDS011;46162;57.568;25.814;2023-10-31T13:21:57;8.07;;;2.50;;
59649;SDS011;46162;57.568;25.814;2023-10-31T13:24:26;7.13;;;2.78;;
59649;SDS011;46162;57.568;25.814;2023-10-31T13:26:55;7.57;;;3.28;;
59649;SDS011;46162;57.568;25.814;2023-10-31T13:29:24;7.65;;;2.90;;
59649;SDS011;46162;57.568;25.814;2023-10-31T13:31:56;6.38;;;3.00;;
59649;SDS011;46162;57.568;25.814;2023-10-31T13:34:25;7.53;;;2.83;;
59649;SDS011;46162;57.568;25.814;2023-10-31T13:36:55;8.00;;;2.88;;
59649;SDS011;46162;57.568;25.814;2023-10-31T13:39:24;9.27;;;3.15;;
59649;SDS011;46162;57.568;25.814;2023-10-31T13:41:53;6.22;;;2.90;;
59649;SDS011;46162;57.568;25.814;2023-10-31T13:44:22;9.40;;;3.17;;
59649;SDS011;46162;57.568;25.814;2023-10-31T13:46:51;11.60;;;3.65;;
59649;SDS011;46162;57.568;25.814;2023-10-31T13:49:21;9.90;;;4.10;;
59649;SDS011;46162;57.568;25.814;2023-10-31T13:51:51;9.57;;;3.70;;
59649;SDS011;46162;57.568;25.814;2023-10-31T13:54:20;8.40;;;3.80;;
59649;SDS011;46162;57.568;25.814;2023-10-31T13:56:48;10.98;;;4.07;;
59649;SDS011;46162;57.568;25.814;2023-10-31T13:59:17;10.73;;;4.05;;
59649;SDS011;46162;57.568;25.814;2023-10-31T14:01:47;8.40;;;4.50;;
59649;SDS011;46162;57.568;25.814;2023-10-31T14:04:15;9.52;;;4.70;;
59649;SDS011;46162;57.568;25.814;2023-10-31T14:06:47;7.70;;;3.78;;
59649;SDS011;46162;57.568;25.814;2023-10-31T14:09:16;10.93;;;4.90;;
59649;SDS011;46162;57.568;25.814;2023-10-31T14:11:45;10.15;;;4.90;;
59649;SDS011;46162;57.568;25.814;2023-10-31T14:14:13;9.50;;;5.15;;
59649;SDS011;46162;57.568;25.814;2023-10-31T14:16:42;9.50;;;5.22;;
59649;SDS011;46162;57.568;25.814;2023-10-31T14:19:11;9.68;;;5.60;;
59649;SDS011;46162;57.568;25.814;2023-10-31T14:21:41;10.77;;;5.93;;
59649;SDS011;46162;57.568;25.814;2023-10-31T14:24:11;10.00;;;5.35;;
59649;SDS011;46162;57.568;25.814;2023-10-31T14:26:43;12.23;;;5.77;;
59649;SDS011;46162;57.568;25.814;2023-10-31T14:29:12;11.52;;;7.40;;
59649;SDS011;46162;57.568;25.814;2023-10-31T14:31:41;9.93;;;6.82;;
59649;SDS011;46162;57.568;25.814;2023-10-31T14:34:10;14.40;;;8.45;;
59649;SDS011;46162;57.568;25.814;2023-10-31T14:36:39;14.98;;;8.27;;
59649;SDS011;46162;57.568;25.814;2023-10-31T14:39:08;16.95;;;8.60;;
59649;SDS011;46162;57.568;25.814;2023-10-31T14:41:40;13.80;;;8.35;;
59649;SDS011;46162;57.568;25.814;2023-10-31T14:44:08;17.90;;;10.20;;
59649;SDS011;46162;57.568;25.814;2023-10-31T14:46:37;15.20;;;8.48;;
59649;SDS011;46162;57.568;25.814;2023-10-31T14:49:06;16.05;;;9.77;;
59649;SDS011;46162;57.568;25.814;2023-10-31T14:51:36;16.75;;;10.20;;
59649;SDS011;46162;57.568;25.814;2023-10-31T14:54:05;19.45;;;10.35;;